Time;durP1;ratioP1;P1;durP2;ratioP2;P2;SDS_P1;SDS_P2;PMS_P1;PMS_P2;Temp;Humidity;BMP_temperature;BMP_pressure;BME280_temperature;BME280_humidity;BME280_pressure;Samples;Min_cycle;Max_cycle;Signal;HPM_P1;HPM_P2
2023/08/29 00:00:54;;;;;;;6.32;4.18;;;;;;;-144.05;86.70;56933.78;5013318;28;20100;-83
2023/08/29 00:03:20;;;;;;;4.55;4.10;;;;;;;-144.05;86.97;56923.19;5013148;28;20565;-82
2023/08/29 00:05:47;;;;;;;6.35;4.88;;;;;;;-144.05;87.02;56931.66;5028677;28;20499;-81
2023/08/29 00:08:13;;;;;;;6.55;5.28;;;;;;;-144.05;87.07;56912.56;5013113;28;20125;-82
2023/08/29 00:10:39;;;;;;;6.78;5.05;;;;;;;-144.05;87.63;56944.41;5012869;28;20034;-82
2023/08/29 00:13:06;;;;;;;8.63;4.65;;;;;;;-144.05;87.58;56916.81;5013001;28;20041;-82
2023/08/29 00:15:32;;;;;;;6.32;4.30;;;;;;;-144.05;87.62;56935.91;5012845;28;20030;-81
2023/08/29 00:18:00;;;;;;;4.90;4.40;;;;;;;-144.05;87.48;56925.28;5012810;28;20025;-79
2023/08/29 00:20:26;;;;;;;5.63;4.30;;;;;;;-144.05;87.44;56929.53;5012168;28;20105;-81
2023/08/29 00:22:52;;;;;;;5.70;4.00;;;;;;;-144.05;87.50;56944.41;5012748;28;20037;-81
2023/08/29 00:25:18;;;;;;;7.10;4.35;;;;;;;-144.05;87.48;56938.03;5012724;28;20034;-81
2023/08/29 00:27:44;;;;;;;6.57;3.75;;;;;;;-144.05;87.50;56950.78;5012749;28;20111;-80
2023/08/29 00:30:11;;;;;;;4.93;4.15;;;;;;;-144.05;87.54;56931.66;5012311;28;20030;-81
2023/08/29 00:32:37;;;;;;;6.13;4.18;;;;;;;-144.05;87.57;56923.19;5012408;28;20022;-80
2023/08/29 00:35:04;;;;;;;5.35;3.53;;;;;;;-144.05;87.42;56918.94;5011094;28;20029;-78
2023/08/29 00:37:31;;;;;;;5.80;4.35;;;;;;;-144.05;87.80;56944.41;5011255;28;20108;-81
2023/08/29 00:39:57;;;;;;;6.70;4.13;;;;;;;-144.05;87.78;56942.28;5010712;28;20116;-80
2023/08/29 00:42:23;;;;;;;6.18;3.85;;;;;;;-144.05;87.68;56921.06;5012397;28;20109;-79
2023/08/29 00:44:50;;;;;;;6.00;4.95;;;;;;;-144.05;87.77;56908.31;5010776;28;20066;-82
2023/08/29 00:47:16;;;;;;;4.55;3.90;;;;;;;-144.05;87.85;56942.28;5012580;28;20030;-80
2023/08/29 00:49:43;;;;;;;7.20;4.35;;;;;;;-144.05;87.67;56929.53;5012297;28;20489;-81
2023/08/29 00:52:09;;;;;;;5.75;3.95;;;;;;;-144.05;87.72;56933.78;5012147;28;20375;-80
2023/08/29 00:54:36;;;;;;;6.53;4.43;;;;;;;-144.05;87.90;56929.53;5010668;28;20080;-81
2023/08/29 00:57:02;;;;;;;8.93;4.75;;;;;;;-144.05;88.09;56952.91;5011944;28;20030;-80
2023/08/29 00:59:28;;;;;;;9.73;5.68;;;;;;;-144.05;88.12;56946.53;5011705;28;20481;-82
2023/08/29 01:01:55;;;;;;;6.93;5.05;;;;;;;-144.05;88.22;56931.66;5011900;28;20038;-81
2023/08/29 01:04:21;;;;;;;6.20;4.00;;;;;;;-144.05;88.20;56925.28;5011988;28;20022;-81
2023/08/29 01:06:48;;;;;;;6.60;5.55;;;;;;;-144.05;88.11;56933.78;5010489;28;20034;-80
2023/08/29 01:09:14;;;;;;;5.53;4.20;;;;;;;-144.05;88.23;56933.78;5011717;28;20029;-81
2023/08/29 01:12:18;;;;;;;5.72;4.70;;;13.70;99.90;;;-144.05;88.31;56887.06;5011991;28;20058;-81
2023/08/29 01:14:59;;;;;;;9.07;5.53;;;;;;;-144.05;88.34;56948.66;5010390;28;20034;-82
2023/08/29 01:17:34;;;;;;;8.05;4.20;;;;;;;-144.05;88.15;56931.66;5011824;28;20029;-80
2023/08/29 01:20:02;;;;;;;5.72;4.22;;;;;;;-144.05;88.00;56925.28;5011698;28;20087;-80
2023/08/29 01:22:31;;;;;;;6.63;4.53;;;;;;;-144.05;87.95;56938.03;5010506;28;20103;-80
2023/08/29 01:25:17;;;;;;;6.45;4.30;;;;;;;-144.05;88.05;56938.03;5011729;28;20437;-80
2023/08/29 01:27:46;;;;;;;4.93;3.97;;;;;;;-144.05;88.15;56944.41;5010471;28;20699;-79
2023/08/29 01:30:15;;;;;;;5.78;4.07;;;14.50;99.90;;;-144.05;88.07;56929.53;5026023;28;20056;-81
2023/08/29 01:32:41;;;;;;;5.65;4.20;;;;;;;-144.05;88.14;56925.28;5033015;28;20033;-82
2023/08/29 01:35:14;;;;;;;6.65;5.05;;;13.10;99.90;;;-144.05;88.27;56927.41;5034105;28;20032;-81
2023/08/29 01:37:40;;;;;;;6.32;4.47;;;;;;;-144.05;88.22;56942.28;5035354;28;20037;-81
2023/08/29 01:40:07;;;;;;;7.32;4.30;;;;;;;-144.05;88.15;56963.53;5050318;28;20051;-81
2023/08/29 01:42:36;;;;;;;7.38;4.85;;;;;;;-144.05;88.24;56916.81;5035171;28;20465;-81
2023/08/29 01:45:04;;;;;;;7.70;4.82;;;;;;;-144.05;88.31;56933.78;5050339;28;20026;-80
2023/08/29 01:47:30;;;;;;;5.10;4.40;;;;;;;-144.05;88.30;56935.91;5050789;28;20025;-80
2023/08/29 01:50:01;;;;;;;5.95;4.35;;;12.70;99.90;;;-144.05;88.38;56929.53;5034916;28;20294;-81
2023/08/29 01:52:27;;;;;;;6.68;4.85;;;;;;;-144.05;88.38;56938.03;5035062;28;20033;-80
2023/08/29 01:54:53;;;;;;;7.80;4.50;;;;;;;-144.05;88.30;56933.78;5034771;28;20044;-82
2023/08/29 01:57:22;;;;;;;10.00;5.55;;;;;;;-144.05;88.71;56921.06;5034905;28;20548;-80
2023/08/29 01:59:49;;;;;;;9.77;5.55;;;;;;;-144.05;88.55;56950.78;5049911;28;20172;-81
2023/08/29 02:02:15;;;;;;;7.22;5.10;;;;;;;-144.05;88.53;56959.28;5034689;28;20065;-82
2023/08/29 02:04:42;;;;;;;8.85;5.70;;;;;;;-144.05;88.51;56959.28;5034802;28;20032;-80
2023/08/29 02:07:08;;;;;;;9.27;5.78;;;;;;;-144.05;88.47;56942.28;5034922;28;20088;-80
2023/08/29 02:09:34;;;;;;;5.60;4.82;;;;;;;-144.05;88.36;56940.16;5034217;28;20065;-79
2023/08/29 02:12:00;;;;;;;6.63;4.60;;;;;;;-144.05;88.35;56944.41;5034786;28;20029;-80
2023/08/29 02:14:26;;;;;;;6.97;5.00;;;;;;;-144.05;88.44;56942.28;5050832;28;20060;-81
2023/08/29 02:16:53;;;;;;;8.73;6.22;;;;;;;-144.05;88.42;56923.19;5033405;28;20030;-81
2023/08/29 02:19:19;;;;;;;6.95;5.28;;;;;;;-144.05;88.60;56938.03;5034311;28;20116;-80
2023/08/29 02:21:45;;;;;;;7.35;4.78;;;;;;;-144.05;88.43;56955.03;5034372;28;20025;-81
2023/08/29 02:24:12;;;;;;;7.30;5.50;;;;;;;-144.05;88.44;56952.91;5033096;28;20030;-80
2023/08/29 02:26:38;;;;;;;8.05;5.75;;;;;;;-144.05;88.37;56927.41;5034334;28;20556;-81
2023/08/29 02:29:04;;;;;;;7.90;5.47;;;;;;;-144.05;88.46;56916.81;5049506;28;20037;-81
2023/08/29 02:31:30;;;;;;;8.68;5.35;;;;;;;-144.05;88.40;56940.16;5032952;28;20060;-79
2023/08/29 02:33:56;;;;;;;6.63;4.97;;;;;;;-144.05;88.45;56918.94;5034149;28;20057;-79
2023/08/29 02:36:23;;;;;;;7.47;5.93;;;;;;;-144.05;88.53;56933.78;5034707;28;20468;-81
2023/08/29 02:38:50;;;;;;;7.68;5.30;;;;;;;-144.05;88.39;56933.78;5045367;28;20036;-82
2023/08/29 02:41:16;;;;;;;7.95;6.13;;;;;;;-144.05;88.48;56925.28;5050609;28;20516;-81
2023/08/29 02:43:42;;;;;;;6.43;4.70;;;;;;;-144.05;88.50;56925.28;5032747;28;20481;-83
2023/08/29 02:46:09;;;;;;;6.82;4.43;;;;;;;-144.05;88.42;56927.41;5034567;28;20065;-81
2023/08/29 02:48:35;;;;;;;6.00;4.65;;;;;;;-144.05;88.43;56921.06;5033982;28;20435;-79
2023/08/29 02:51:01;;;;;;;8.55;4.90;;;;;;;-144.05;88.64;56942.28;5033684;28;20132;-80
2023/08/29 02:53:27;;;;;;;5.88;4.75;;;;;;;-144.05;88.34;56923.19;5032235;28;20025;-80
2023/08/29 02:55:54;;;;;;;8.13;5.55;;;;;;;-144.05;88.81;56925.28;5032181;28;20033;-80
2023/08/29 02:58:20;;;;;;;7.28;5.20;;;;;;;-144.05;88.41;56942.28;5033606;28;20119;-80
2023/08/29 03:00:47;;;;;;;9.68;6.07;;;;;;;-144.05;88.17;56952.91;5033493;28;20052;-80
2023/08/29 03:03:13;;;;;;;5.82;5.05;;;;;;;-144.05;88.21;56927.41;5033489;28;20026;-79
2023/08/29 03:05:42;;;;;;;6.32;4.88;;;;;;;-144.05;88.30;56950.78;5032159;28;20025;-79
2023/08/29 03:08:08;;;;;;;6.82;4.45;;;;;;;-144.05;88.24;56933.78;5033349;28;20033;-79
2023/08/29 03:10:38;;;;;;;7.10;4.50;;;12.50;99.90;;;-144.05;88.13;56906.19;5048299;28;20037;-81
2023/08/29 03:13:05;;;;;;;7.10;4.32;;;;;;;-144.05;88.37;56946.53;5033204;28;20134;-81
2023/08/29 03:15:34;;;;;;;5.90;4.60;;;12.30;99.90;;;-144.05;88.42;56961.41;5032156;28;20126;-83
2023/08/29 03:18:02;;;;;;;7.03;4.13;;;;;;;-144.05;88.36;56933.78;5033551;28;20033;-81
2023/08/29 03:20:29;;;;;;;8.80;4.90;;;;;;;-144.05;88.42;56918.94;5048625;28;20052;-81
2023/08/29 03:22:55;;;;;;;8.55;5.93;;;;;;;-144.05;88.43;56961.41;5033363;28;20135;-79
2023/08/29 03:25:22;;;;;;;11.70;6.10;;;11.60;99.90;;;-144.05;88.68;56912.56;5032959;28;20133;-81
2023/08/29 03:27:49;;;;;;;10.93;6.35;;;;;;;-144.05;88.59;56921.06;5033091;28;20092;-80
2023/08/29 03:30:16;;;;;;;11.48;5.93;;;13.10;99.90;;;-144.05;88.63;56925.28;5032862;28;20108;-81
2023/08/29 03:32:49;;;;;;;17.02;8.15;;;11.50;99.90;;;-144.05;88.60;56929.53;5033675;28;20029;-85
2023/08/29 03:35:16;;;;;;;21.02;7.15;;;;;;;-144.05;88.54;56942.28;5033048;28;20030;-84
2023/08/29 03:37:42;;;;;;;16.77;8.20;;;;;;;-144.05;88.58;56929.53;5033188;28;20048;-78
2023/08/29 03:40:10;;;;;;;18.30;8.38;;;;;;;-144.05;88.51;56933.78;5032665;28;20040;-79
2023/08/29 03:42:36;;;;;;;24.73;8.88;;;;;;;-144.05;88.75;56946.53;5032788;28;20033;-80
2023/08/29 03:45:03;;;;;;;20.15;8.68;;;;;;;-144.05;88.76;56959.28;5047926;28;20017;-80
2023/08/29 03:47:32;;;;;;;20.08;9.07;;;;;;;-144.05;88.89;56914.69;5033216;28;20047;-79
2023/08/29 03:49:58;;;;;;;18.23;8.15;;;;;;;-144.05;88.74;56929.53;5032671;28;20029;-81
2023/08/29 03:52:26;;;;;;;19.85;8.23;;;13.20;99.90;;;-144.05;88.61;56918.94;5047702;28;20029;-80
2023/08/29 03:54:53;;;;;;;21.27;9.20;;;10.20;99.90;;;-144.05;88.96;56923.19;5032280;28;20489;-78
2023/08/29 03:57:22;;;;;;;19.60;10.02;;;;;;;-144.05;88.79;56925.28;5032038;28;20033;-78
2023/08/29 03:59:48;;;;;;;18.80;8.80;;;;;;;-144.05;89.00;56927.41;5032396;28;20034;-80
2023/08/29 04:02:15;;;;;;;18.50;9.52;;;;;;;-144.05;88.98;56948.66;5032644;28;20026;-79
2023/08/29 04:04:44;;;;;;;17.45;7.93;;;;;;;-144.05;89.15;56955.03;5032338;28;20028;-80
2023/08/29 04:07:11;;;;;;;11.23;6.82;;;11.40;99.90;;;-144.05;88.89;56927.41;5032645;28;20500;-81
2023/08/29 04:09:38;;;;;;;7.47;5.13;;;;;;;-144.05;88.99;56931.66;5032017;28;20449;-80
2023/08/29 04:12:07;;;;;;;12.40;6.15;;;;;;;-144.05;89.08;56921.06;5033115;28;20477;-83
2023/08/29 04:14:34;;;;;;;11.82;6.20;;;;;;;-144.05;89.04;56950.78;5035773;28;20029;-83
2023/08/29 04:17:01;;;;;;;14.02;6.32;;;;;;;-144.05;89.23;56963.53;5034417;28;20034;-82
2023/08/29 04:19:27;;;;;;;13.13;6.53;;;;;;;-144.05;89.29;56931.66;5034319;28;20052;-81
2023/08/29 04:21:53;;;;;;;16.00;8.73;;;;;;;-144.05;89.42;56942.28;5034661;28;20033;-82
2023/08/29 04:24:20;;;;;;;18.52;9.43;;;;;;;-144.05;89.34;56927.41;5034243;28;20017;-83
2023/08/29 04:26:47;;;;;;;13.88;8.38;;;;;;;-144.05;89.23;56935.91;5035103;28;20036;-81
2023/08/29 04:29:13;;;;;;;18.08;9.18;;;;;;;-144.05;89.43;56946.53;5050951;28;20030;-83
2023/08/29 04:31:39;;;;;;;12.30;7.75;;;;;;;-144.05;89.38;56942.28;5034695;28;20084;-84
2023/08/29 04:34:05;;;;;;;13.40;8.20;;;;;;;-144.05;89.49;56948.66;5034330;28;20640;-83
2023/08/29 04:36:31;;;;;;;13.98;8.32;;;;;;;-144.05;89.28;56923.19;5034236;28;20037;-81
2023/08/29 04:38:58;;;;;;;18.45;9.77;;;;;;;-144.05;89.63;56938.03;5032939;28;20492;-81
2023/08/29 04:41:24;;;;;;;12.65;7.63;;;;;;;-144.05;89.63;56921.06;5034056;28;20523;-82
2023/08/29 04:43:50;;;;;;;10.73;7.43;;;;;;;-144.05;89.51;56938.03;5033692;28;20088;-79
2023/08/29 04:46:16;;;;;;;12.48;7.20;;;;;;;-144.05;89.43;56948.66;5050149;28;20334;-82
2023/08/29 04:48:43;;;;;;;11.60;8.13;;;;;;;-144.05;89.52;56931.66;5034648;28;20366;-82
2023/08/29 04:51:09;;;;;;;13.02;9.25;;;;;;;-144.05;89.71;56957.16;5049199;28;20116;-82
2023/08/29 04:53:35;;;;;;;11.40;8.35;;;;;;;-144.05;89.76;56923.19;5049683;28;20095;-81
2023/08/29 04:56:04;;;;;;;11.73;8.35;;;10.90;99.90;;;-144.05;89.56;56925.28;5034310;28;20091;-80
2023/08/29 04:58:31;;;;;;;14.10;8.35;;;;;;;-144.05;89.72;56946.53;5031920;28;20065;-82
2023/08/29 05:00:57;;;;;;;9.43;7.35;;;;;;;-144.05;89.62;56918.94;5032013;28;20021;-82
2023/08/29 05:03:23;;;;;;;12.73;9.30;;;;;;;-144.05;89.88;56942.28;5033000;28;20462;-82
2023/08/29 05:05:51;;;;;;;15.90;11.27;;;;;;;-144.05;89.91;56946.53;5033819;28;20099;-81
2023/08/29 05:08:18;;;;;;;12.27;9.05;;;;;;;-144.05;89.63;56940.16;5034001;28;20083;-81
2023/08/29 05:10:44;;;;;;;14.70;9.55;;;;;;;-144.05;89.56;56931.66;5033240;28;20040;-82
2023/08/29 05:13:11;;;;;;;10.82;8.95;;;;;;;-144.05;89.68;56933.78;5033649;28;20115;-81
2023/08/29 05:15:37;;;;;;;10.65;8.05;;;;;;;-144.05;89.69;56942.28;5034403;28;20034;-80
2023/08/29 05:18:04;;;;;;;14.20;10.25;;;;;;;-144.05;89.44;56946.53;5032759;28;20500;-81
2023/08/29 05:20:30;;;;;;;14.77;9.85;;;;;;;-144.05;89.34;56952.91;5032743;28;20404;-81
2023/08/29 05:22:56;;;;;;;12.60;8.63;;;;;;;-144.05;89.54;56959.28;5033960;28;20404;-82
2023/08/29 05:25:23;;;;;;;13.90;8.52;;;;;;;-144.05;90.12;56901.94;5033066;28;20125;-83
2023/08/29 05:27:49;;;;;;;11.73;7.68;;;;;;;-144.05;89.69;56967.78;5049780;28;20029;-80
2023/08/29 05:30:15;;;;;;;9.02;7.30;;;;;;;-144.05;89.76;56925.28;5040053;28;20039;-80
2023/08/29 05:32:42;;;;;;;13.20;9.20;;;;;;;-144.05;89.67;56940.16;5034989;28;20056;-83
2023/08/29 05:35:08;;;;;;;12.00;9.07;;;;;;;-144.05;89.48;56961.41;5050370;28;20026;-82
2023/08/29 05:37:34;;;;;;;14.68;9.85;;;;;;;-144.05;89.43;56950.78;5034868;28;20056;-81
2023/08/29 05:40:01;;;;;;;13.15;9.80;;;;;;;-144.05;89.52;56935.91;5034213;28;20469;-82
2023/08/29 05:42:28;;;;;;;12.25;8.55;;;;;;;-144.05;89.63;56944.41;5034304;28;20034;-81
2023/08/29 05:44:54;;;;;;;10.82;7.88;;;;;;;-144.05;89.41;56933.78;5034224;28;20053;-80
2023/08/29 05:47:20;;;;;;;13.48;8.35;;;;;;;-144.05;89.45;56940.16;5033142;28;20028;-81
2023/08/29 05:49:46;;;;;;;14.32;7.60;;;;;;;-144.05;89.34;56957.16;5033948;28;20470;-82
2023/08/29 05:52:12;;;;;;;16.90;9.10;;;;;;;-144.05;89.48;56929.53;5034246;28;20091;-81
2023/08/29 05:54:39;;;;;;;13.13;9.00;;;;;;;-144.05;89.33;56950.78;5033843;28;20090;-80
2023/08/29 05:57:05;;;;;;;15.48;9.75;;;;;;;-144.05;89.34;56929.53;5032460;28;20072;-81
2023/08/29 05:59:31;;;;;;;12.82;8.93;;;;;;;-144.05;89.25;56938.03;5033544;28;20123;-82
2023/08/29 06:01:58;;;;;;;19.35;11.60;;;;;;;-144.05;89.59;56916.81;5031890;28;20128;-80
2023/08/29 06:04:24;;;;;;;11.90;7.82;;;;;;;-144.05;89.33;56933.78;5033197;28;20108;-80
2023/08/29 06:06:51;;;;;;;12.23;8.23;;;;;;;-144.05;89.27;56944.41;5035203;28;20037;-80
2023/08/29 06:09:18;;;;;;;13.48;8.18;;;;;;;-144.05;89.18;56942.28;5034651;28;20033;-80
2023/08/29 06:11:45;;;;;;;14.45;10.15;;;;;;;-144.05;88.92;56927.41;5032608;28;20026;-81
2023/08/29 06:14:11;;;;;;;16.40;10.75;;;;;;;-144.05;88.91;56938.03;5032262;28;20112;-80
2023/08/29 06:16:37;;;;;;;14.52;9.48;;;;;;;-144.05;88.96;56950.78;5032227;28;20032;-80
2023/08/29 06:19:03;;;;;;;17.33;10.70;;;;;;;-144.05;88.89;56925.28;5033918;28;20053;-83
2023/08/29 06:21:30;;;;;;;16.55;10.20;;;;;;;-144.05;88.86;56904.06;5036662;28;20039;-81
2023/08/29 06:23:56;;;;;;;12.25;9.20;;;;;;;-144.05;88.75;56938.03;5036942;28;20075;-81
2023/08/29 06:26:22;;;;;;;16.15;11.25;;;;;;;-144.05;88.73;56967.78;5035070;28;20025;-81
2023/08/29 06:28:48;;;;;;;13.25;8.63;;;;;;;-144.05;88.69;56923.19;5037010;28;20021;-81
2023/08/29 06:31:14;;;;;;;12.65;9.20;;;;;;;-144.05;88.37;56933.78;5035195;28;20064;-79
2023/08/29 06:33:41;;;;;;;14.20;10.48;;;;;;;-144.05;88.30;56929.53;5036645;28;20108;-81
2023/08/29 06:36:07;;;;;;;14.38;11.35;;;;;;;-144.05;88.28;56940.16;5036899;28;20117;-81
2023/08/29 06:38:34;;;;;;;15.70;10.23;;;;;;;-144.05;88.14;56927.41;5035910;28;20103;-82
2023/08/29 06:41:00;;;;;;;15.15;11.27;;;;;;;-144.05;88.20;56908.31;5037270;28;20040;-82
2023/08/29 06:43:27;;;;;;;12.00;9.07;;;;;;;-144.05;88.02;56904.06;5035962;28;20025;-83
2023/08/29 06:45:53;;;;;;;14.07;9.45;;;;;;;-144.05;87.75;56921.06;5037700;28;20029;-82
2023/08/29 06:48:19;;;;;;;13.27;8.25;;;;;;;-144.05;87.60;56925.28;5052512;28;20029;-81
2023/08/29 06:50:46;;;;;;;13.07;9.02;;;13.50;99.90;;;-144.05;87.41;56927.41;5036543;28;20053;-82
2023/08/29 06:53:12;;;;;;;15.20;10.55;;;;;;;-144.05;87.22;56914.69;5036923;28;20029;-82
2023/08/29 06:55:39;;;;;;;18.80;12.27;;;;;;;-144.05;87.09;56935.91;5036642;28;20061;-82
2023/08/29 06:58:05;;;;;;;12.98;9.68;;;;;;;-144.05;86.83;56925.28;5036398;28;20052;-81
2023/08/29 07:00:33;;;;;;;12.85;8.40;;;;;;;-144.05;86.69;56938.03;5036222;28;20048;-81
2023/08/29 07:03:00;;;;;;;14.77;10.23;;;;;;;-144.05;86.24;56955.03;5036651;28;20049;-81
2023/08/29 07:05:27;;;;;;;15.52;11.30;;;;;;;-144.05;86.17;56929.53;5036435;28;20033;-81
2023/08/29 07:07:53;;;;;;;19.05;11.05;;;;;;;-144.05;85.55;56935.91;5037481;28;20117;-81
2023/08/29 07:10:19;;;;;;;17.45;11.80;;;;;;;-144.05;84.84;56929.53;5036533;28;20116;-82
2023/08/29 07:12:46;;;;;;;18.67;12.30;;;14.00;99.90;;;-144.05;84.83;56921.06;5036966;28;20108;-81
2023/08/29 07:15:12;;;;;;;14.18;9.35;;;;;;;-144.05;84.72;56908.31;5040098;28;20049;-84
2023/08/29 07:17:39;;;;;;;17.10;10.10;;;;;;;-144.05;84.41;56916.81;5039115;28;20029;-82
2023/08/29 07:20:08;;;;;;;20.55;11.23;;;;;;;-144.05;83.26;56923.19;5038587;28;20026;-83
2023/08/29 07:22:43;;;;;;;23.23;11.48;;;14.90;99.90;;;-144.05;82.94;56931.66;5039159;28;20060;-81
2023/08/29 07:25:11;;;;;;;21.98;11.25;;;;;;;-144.05;82.74;56910.44;5053866;28;20116;-82
2023/08/29 07:27:38;;;;;;;16.05;10.25;;;;;;;-144.05;82.54;56887.06;5036827;28;20418;-83
2023/08/29 07:30:05;;;;;;;19.90;10.82;;;;;;;-144.05;82.21;56931.66;5037114;28;20029;-84
2023/08/29 07:32:32;;;;;;;14.98;9.30;;;;;;;-144.05;82.07;56914.69;5036091;28;20029;-83
2023/08/29 07:34:58;;;;;;;12.93;10.05;;;;;;;-144.05;81.75;56918.94;5038132;28;20087;-82
2023/08/29 07:37:24;;;;;;;16.98;9.73;;;;;;;-144.05;81.36;56891.31;5053137;28;20124;-84
2023/08/29 07:39:51;;;;;;;15.15;10.13;;;;;;;-144.05;80.27;56910.44;5036883;28;20528;-84
2023/08/29 07:42:17;;;;;;;13.20;10.23;;;;;;;-144.05;80.26;56916.81;5035988;28;20120;-81
2023/08/29 07:44:43;;;;;;;10.85;8.65;;;;;;;-144.05;80.24;56914.69;5051536;28;20365;-80
2023/08/29 07:47:10;;;;;;;12.85;8.30;;;;;;;-144.05;79.89;56914.69;5050755;28;20029;-81
2023/08/29 07:49:36;;;;;;;16.55;9.60;;;;;;;-144.05;79.37;56906.19;5033892;28;20079;-82
2023/08/29 07:52:03;;;;;;;14.82;9.85;;;;;;;-144.05;78.61;56938.03;5041421;28;20045;-81
2023/08/29 07:54:29;;;;;;;11.65;8.40;;;;;;;-144.05;78.48;56942.28;5061600;28;20042;-81
2023/08/29 07:56:55;;;;;;;14.45;9.75;;;;;;;-144.05;78.02;56912.56;5046358;28;20057;-79
2023/08/29 07:59:23;;;;;;;11.07;8.23;;;;;;;-144.05;77.96;56910.44;5046707;28;20090;-80
2023/08/29 08:01:49;;;;;;;11.02;7.78;;;;;;;-144.05;77.98;56895.56;5037930;28;20025;-82
2023/08/29 08:04:16;;;;;;;13.93;10.25;;;;;;;-144.05;77.02;56946.53;5035824;28;20113;-83
2023/08/29 08:06:42;;;;;;;14.50;10.35;;;;;;;-144.05;76.96;56908.31;5035985;28;20029;-78
2023/08/29 08:09:08;;;;;;;19.02;10.20;;;;;;;-144.05;76.94;56927.41;5034165;28;20025;-81
2023/08/29 08:11:35;;;;;;;13.15;10.93;;;;;;;-144.05;76.09;56959.28;5035922;28;20435;-82
2023/08/29 08:14:01;;;;;;;15.00;10.90;;;;;;;-144.05;75.95;56935.91;5034849;28;20025;-81
2023/08/29 08:16:27;;;;;;;11.60;7.82;;;;;;;-144.05;75.75;56955.03;5050723;28;20022;-81
2023/08/29 08:18:53;;;;;;;15.55;10.77;;;;;;;-144.05;74.59;56957.16;5035829;28;20025;-80
2023/08/29 08:21:20;;;;;;;21.17;13.85;;;;;;;-144.05;75.48;56916.81;5034713;28;20037;-82
2023/08/29 08:23:48;;;;;;;14.85;10.48;;;;;;;-144.05;75.01;56923.19;5036010;28;20022;-82
2023/08/29 08:26:14;;;;;;;16.55;11.68;;;;;;;-144.05;74.84;56948.66;5036268;28;20029;-83
2023/08/29 08:28:41;;;;;;;17.42;10.88;;;;;;;-144.05;74.94;56923.19;5035795;28;20108;-80
2023/08/29 08:31:07;;;;;;;15.30;10.07;;;;;;;-144.05;74.94;56904.06;5036063;28;20476;-82
2023/08/29 08:33:33;;;;;;;13.55;9.32;;;;;;;-144.05;75.03;56916.81;5036200;28;20439;-83
2023/08/29 08:35:59;;;;;;;16.35;10.75;;;;;;;-144.05;74.73;56940.16;5036925;28;20469;-84
2023/08/29 08:38:26;;;;;;;20.33;11.57;;;;;;;-144.05;74.76;56952.91;5034978;28;20037;-81
2023/08/29 08:40:56;;;;;;;15.00;10.73;;;16.90;99.90;;;-144.05;74.78;56944.41;5036051;28;20108;-81
2023/08/29 08:43:24;;;;;;;16.00;11.30;;;;;;;-144.05;74.91;56933.78;5035126;28;20033;-80
2023/08/29 08:45:52;;;;;;;16.00;10.70;;;16.60;99.90;;;-144.05;75.08;56942.28;5035884;28;20429;-81
2023/08/29 08:48:21;;;;;;;14.82;9.25;;;16.50;99.90;;;-144.05;75.39;56946.53;5035467;28;20091;-80
2023/08/29 08:50:48;;;;;;;13.00;8.93;;;;;;;-144.05;75.37;56910.44;5051667;28;20021;-82
2023/08/29 08:53:20;;;;;;;16.70;11.30;;;16.30;99.90;;;-144.05;75.11;56946.53;5036080;28;20037;-81
2023/08/29 08:55:48;;;;;;;17.90;12.13;;;;;;;-144.05;74.79;56969.91;5036103;28;20038;-81
2023/08/29 08:58:16;;;;;;;13.18;10.05;;;;;;;-144.05;75.07;56948.66;5051443;28;20025;-80
2023/08/29 09:00:42;;;;;;;15.93;12.10;;;;;;;-144.05;72.90;56942.28;5036509;28;20096;-82
2023/08/29 09:03:09;;;;;;;19.52;12.63;;;;;;;-144.05;72.09;56963.53;5035854;28;20044;-81
2023/08/29 09:05:35;;;;;;;15.32;9.75;;;;;;;-144.05;72.12;56974.16;5035180;28;20036;-80
2023/08/29 09:08:02;;;;;;;13.85;10.85;;;;;;;-144.05;71.60;56957.16;5033990;28;20030;-78
2023/08/29 09:10:33;;;;;;;15.48;11.80;;;17.70;99.90;;;-144.05;69.46;56955.03;5034494;28;20084;-81
2023/08/29 09:12:59;;;;;;;14.75;10.13;;;;;;;-144.05;68.28;56959.28;5033306;28;20124;-82
2023/08/29 09:15:27;;;;;;;9.63;7.47;;;18.50;99.90;;;-144.05;68.49;56957.16;5034094;28;20026;-82
2023/08/29 09:17:54;;;;;;;14.52;10.57;;;;;;;-144.05;65.77;56972.03;5034896;28;20028;-82
2023/08/29 09:20:29;;;;;;;12.57;9.88;;;19.10;99.90;;;-144.05;65.46;56989.00;5034642;28;20096;-81
2023/08/29 09:22:55;;;;;;;11.77;9.00;;;;;;;-144.05;64.14;56978.41;5034888;28;20116;-80
2023/08/29 09:25:26;;;;;;;9.32;8.20;;;19.70;99.90;;;-144.05;62.16;56976.28;5035081;28;20260;-81
2023/08/29 09:27:53;;;;;;;12.27;8.73;;;;;;;-144.05;60.91;56986.91;5032560;28;20064;-79
2023/08/29 09:30:19;;;;;;;10.43;8.45;;;;;;;-144.05;59.58;56969.91;5035022;28;20105;-81
2023/08/29 09:32:51;;;;;;;8.80;6.88;;;;;;;-144.05;59.12;56982.66;5034625;28;20037;-81
2023/08/29 09:35:22;;;;;;;8.95;7.38;;;19.90;99.90;;;-144.05;57.66;56989.00;5034693;28;20033;-83
2023/08/29 09:37:53;;;;;;;10.90;7.40;;;20.70;99.90;;;-144.05;57.08;57012.38;5042764;28;20037;-81
2023/08/29 09:40:20;;;;;;;11.60;7.05;;;;;;;-144.05;57.86;56997.50;5040617;28;20473;-83
2023/08/29 09:43:01;;;;;;;9.75;7.35;;;21.20;99.90;;;-144.05;56.59;56999.63;5052221;28;20045;-81
2023/08/29 09:45:31;;;;;;;10.75;7.75;;;21.00;99.90;;;-144.05;54.74;57016.63;5035801;28;20037;-82
2023/08/29 09:48:03;;;;;;;7.82;6.72;;;21.20;99.90;;;-144.05;55.47;57014.50;5036806;28;20045;-83
2023/08/29 09:50:30;;;;;;;6.90;5.45;;;;;;;-144.05;56.49;57008.13;5037603;28;20026;-79
2023/08/29 09:52:59;;;;;;;11.32;7.80;;;20.70;99.90;;;-144.05;57.08;56986.91;5037675;28;20030;-82
2023/08/29 09:55:35;;;;;;;9.20;6.22;;;20.10;99.90;;;-144.05;57.21;56974.16;5040601;28;20408;-81
2023/08/29 09:58:04;;;;;;;10.02;6.65;;;20.70;99.90;;;-144.05;56.21;56980.53;5042026;28;20049;-82
2023/08/29 10:00:32;;;;;;;10.35;6.65;;;20.50;99.90;;;-144.05;55.12;56997.50;5041429;28;20021;-81
2023/08/29 10:03:03;;;;;;;9.63;6.70;;;20.60;99.90;;;-144.05;55.13;57012.38;5040464;28;20052;-83
2023/08/29 10:05:38;;;;;;;12.93;7.50;;;20.30;99.90;;;-144.05;55.53;56995.38;5041262;28;20473;-80
2023/08/29 10:08:55;;;;;;;13.82;7.55;;;22.20;99.90;;;-144.05;56.11;56976.28;5041124;28;20036;-83
2023/08/29 10:11:22;;;;;;;10.47;7.17;;;;;;;-144.05;56.26;56974.16;5053931;28;20067;-83
2023/08/29 10:13:50;;;;;;;8.05;6.10;;;;;;;-144.05;56.10;56995.38;5054838;28;20457;-82
2023/08/29 10:16:17;;;;;;;8.05;5.47;;;;;;;-144.05;56.51;56982.66;5042046;28;20037;-82
2023/08/29 10:18:44;;;;;;;6.85;5.78;;;;;;;-144.05;57.43;56982.66;5041054;28;20123;-83
2023/08/29 10:21:14;;;;;;;10.23;6.53;;;19.70;99.90;;;-144.05;57.04;56982.66;5055780;28;20029;-83
2023/08/29 10:23:41;;;;;;;7.18;5.07;;;19.40;99.90;;;-144.05;58.06;56972.03;5041437;28;20033;-81
2023/08/29 10:26:07;;;;;;;6.50;5.78;;;;;;;-144.05;58.19;56955.03;5038482;28;20079;-83
2023/08/29 10:28:35;;;;;;;6.80;4.90;;;19.70;99.90;;;-144.05;58.59;56976.28;5038465;28;20029;-79
2023/08/29 10:31:06;;;;;;;8.98;6.40;;;19.20;99.90;;;-144.05;58.06;56976.28;5038741;28;20021;-80
2023/08/29 10:33:36;;;;;;;6.30;5.22;;;19.40;99.90;;;-144.05;58.21;56972.03;5037362;28;20061;-81
2023/08/29 10:36:05;;;;;;;10.40;5.43;;;;;;;-144.05;57.17;56963.53;5037226;28;20085;-80
2023/08/29 10:38:37;;;;;;;9.68;4.65;;;;;;;-144.05;57.61;56991.13;5038694;28;20025;-81
2023/08/29 10:41:06;;;;;;;6.88;4.45;;;;;;;-144.05;57.98;56980.53;5038605;28;20093;-81
2023/08/29 10:43:34;;;;;;;8.45;5.88;;;;;;;-144.05;56.45;57001.75;5038423;28;20512;-80
2023/08/29 10:46:16;;;;;;;6.85;5.00;;;20.90;99.90;;;-144.05;54.36;56989.00;5038752;28;20056;-81
2023/08/29 10:48:45;;;;;;;5.18;3.83;;;;;;;-144.05;53.28;56995.38;5039283;28;20028;-81
2023/08/29 10:51:30;;;;;;;5.60;3.53;;;21.50;99.90;;;-144.05;53.18;56995.38;5039404;28;20029;-80
2023/08/29 10:54:05;;;;;;;6.40;3.75;;;;;;;-144.05;53.01;57027.25;5039647;28;20036;-78
2023/08/29 10:56:45;;;;;;;5.63;4.53;;;22.30;99.90;;;-144.05;50.60;57023.00;5038850;28;20029;-78
2023/08/29 10:59:34;;;;;;;5.18;3.65;;;22.10;99.90;;;-144.05;49.97;57029.38;5039163;28;20041;-78